Time;durP1;ratioP1;P1;durP2;ratioP2;P2;SDS_P1;SDS_P2;PMS_P1;PMS_P2;Temp;Humidity;BMP_temperature;BMP_pressure;BME280_temperature;BME280_humidity;BME280_pressure;Samples;Min_cycle;Max_cycle;Signal;HPM_P1;HPM_P2
2024/02/03 00:01:13;;;;;;;0.10;0.10;;;;;;;38.93;24.72;100647.59;7400518;19;20011;-54
2024/02/03 00:03:40;;;;;;;0.50;0.20;;;;;;;38.95;25.02;100644.03;7394841;19;20010;-54
2024/02/03 00:06:07;;;;;;;6.50;1.45;;;;;;;39.18;24.76;100638.56;7396020;19;20011;-53
2024/02/03 00:08:33;;;;;;;1.85;0.30;;;;;;;39.05;24.80;100627.00;7396366;19;20011;-54
2024/02/03 00:10:59;;;;;;;2.13;0.75;;;;;;;38.73;24.72;100634.25;7400091;19;20077;-54
2024/02/03 00:13:26;;;;;;;11.60;0.85;;;;;;;38.71;24.70;100622.50;7396522;19;20006;-54
2024/02/03 00:15:52;;;;;;;0.63;0.30;;;;;;;38.73;24.99;100631.34;7395330;19;20026;-54
2024/02/03 00:18:18;;;;;;;0.57;0.17;;;;;;;38.79;25.03;100623.63;7396759;19;20022;-54
2024/02/03 00:20:44;;;;;;;0.50;0.50;;;;;;;38.77;24.88;100620.63;7397907;19;20018;-54
2024/02/03 00:23:10;;;;;;;0.30;0.20;;;;;;;38.76;24.78;100630.03;7395743;19;20073;-53
2024/02/03 00:25:38;;;;;;;6.85;0.70;;;;;;;38.86;24.85;100633.41;7394570;19;20023;-82
2024/02/03 00:28:04;;;;;;;1.05;0.20;;;;;;;38.86;25.07;100622.50;7393886;19;20037;-82
2024/02/03 00:30:31;;;;;;;2.05;0.10;;;;;;;38.89;24.79;100626.28;7392685;19;20357;-83
2024/02/03 00:32:57;;;;;;;1.73;1.10;;;;;;;39.11;24.96;100619.28;7389464;19;20015;-82
2024/02/03 00:35:23;;;;;;;0.22;0.22;;;;;;;39.73;24.64;100624.22;7390140;19;20021;-82
2024/02/03 00:37:49;;;;;;;0.63;0.50;;;;;;;39.75;24.27;100618.47;7389017;19;20022;-82
2024/02/03 00:40:16;;;;;;;0.43;0.30;;;;;;;39.88;24.63;100617.56;7390355;19;20086;-82
2024/02/03 00:42:42;;;;;;;1.05;0.30;;;;;;;39.82;24.47;100620.22;7386005;19;20019;-81
2024/02/03 00:45:09;;;;;;;0.28;0.28;;;;;;;39.94;24.54;100620.72;7385227;19;20018;-81
2024/02/03 00:47:35;;;;;;;1.40;0.68;;;;;;;39.83;24.14;100609.31;7383393;19;20493;-81
2024/02/03 00:50:01;;;;;;;0.32;0.30;;;;;;;39.66;24.14;100607.88;7384286;19;20086;-81
2024/02/03 00:52:27;;;;;;;0.10;0.00;;;;;;;39.62;24.46;100601.88;7383035;19;20023;-81
2024/02/03 00:54:53;;;;;;;0.20;0.10;;;;;;;40.00;23.74;100599.84;7383405;19;20091;-81
2024/02/03 00:57:19;;;;;;;0.10;0.03;;;;;;;39.72;24.46;100602.28;7390988;19;20090;-81
2024/02/03 00:59:46;;;;;;;0.00;0.00;;;;;;;39.67;24.09;100600.63;7389046;19;20448;-81
2024/02/03 01:02:12;;;;;;;1.23;0.45;;;;;;;39.76;23.92;100605.41;7389547;19;20033;-81
2024/02/03 01:04:41;;;;;;;0.52;0.20;;;;;;;39.68;23.94;100593.38;7386896;19;20011;-81
2024/02/03 01:07:07;;;;;;;0.00;0.00;;;;;;;39.62;24.23;100601.88;7387123;19;20484;-80
2024/02/03 01:09:33;;;;;;;6.22;0.30;;;;;;;39.41;24.25;100599.50;7392243;19;20014;-82
2024/02/03 01:11:59;;;;;;;0.95;0.70;;;;;;;39.42;24.43;100590.06;7389620;19;20386;-81
2024/02/03 01:14:26;;;;;;;0.20;0.20;;;;;;;38.87;24.48;100588.31;7389282;19;20035;-81
2024/02/03 01:16:53;;;;;;;0.93;0.20;;;;;;;39.19;24.14;100578.13;7387929;19;20050;-82
2024/02/03 01:19:20;;;;;;;0.88;0.17;;;;;;;39.18;24.34;100594.84;7388924;19;20022;-82
2024/02/03 01:21:46;;;;;;;0.32;0.20;;;;;;;39.03;24.17;100577.38;7391397;19;20484;-82
2024/02/03 01:24:12;;;;;;;3.20;0.77;;;;;;;39.01;24.33;100583.09;7388816;19;20078;-82
2024/02/03 01:26:38;;;;;;;0.52;0.10;;;;;;;39.04;24.10;100573.03;7388766;19;20019;-81
2024/02/03 01:29:04;;;;;;;3.85;0.93;;;;;;;39.04;24.03;100584.69;7387575;19;20046;-82
2024/02/03 01:31:31;;;;;;;4.68;0.35;;;;;;;39.36;24.24;100581.06;7394303;19;20010;-81
2024/02/03 01:33:57;;;;;;;1.33;0.47;;;;;;;39.00;24.35;100570.72;7390746;19;20026;-81
2024/02/03 01:36:24;;;;;;;0.68;0.30;;;;;;;38.95;24.07;100565.34;7386640;19;20101;-82
2024/02/03 01:38:52;;;;;;;0.15;0.15;;;;;;;39.20;24.08;100573.81;7389191;19;20484;-81
2024/02/03 01:41:18;;;;;;;1.65;0.70;;;;;;;39.24;24.18;100580.56;7388717;19;20070;-81
2024/02/03 01:43:45;;;;;;;0.20;0.20;;;;;;;39.20;24.12;100573.81;7390537;19;20014;-82
2024/02/03 01:46:12;;;;;;;0.20;0.20;;;;;;;39.09;24.15;100583.47;7384515;19;20050;-81
2024/02/03 01:48:38;;;;;;;0.10;0.00;;;;;;;39.17;24.01;100578.78;7388875;19;20025;-81
2024/02/03 01:51:06;;;;;;;3.90;0.20;;;;;;;39.26;24.05;100576.97;7392418;19;20022;-81
2024/02/03 01:53:33;;;;;;;0.88;0.47;;;;;;;38.55;24.46;100564.25;7391634;19;20022;-82
2024/02/03 01:55:59;;;;;;;2.17;0.47;;;;;;;38.20;24.96;100561.88;7392507;19;20043;-81
2024/02/03 01:58:25;;;;;;;0.10;0.10;;;;;;;38.13;24.94;100565.91;7391812;19;20018;-81
2024/02/03 02:00:53;;;;;;;0.10;0.10;;;;;;;38.34;25.12;100556.72;7391942;19;20624;-81
2024/02/03 02:03:19;;;;;;;6.90;0.82;;;;;;;38.34;25.00;100561.81;7385605;19;20025;-81
2024/02/03 02:05:46;;;;;;;0.20;0.20;;;;;;;38.33;24.94;100555.25;7387748;19;20038;-81
2024/02/03 02:08:12;;;;;;;0.50;0.30;;;;;;;38.42;25.19;100562.19;7388143;19;20011;-81
2024/02/03 02:10:38;;;;;;;0.38;0.38;;;;;;;38.39;24.81;100563.50;7390156;19;20018;-81
2024/02/03 02:13:04;;;;;;;0.70;0.20;;;;;;;38.40;24.78;100557.00;7388908;19;20022;-81
2024/02/03 02:15:31;;;;;;;1.40;0.15;;;;;;;38.41;25.08;100558.53;7388459;19;20037;-81
2024/02/03 02:17:58;;;;;;;0.13;0.10;;;;;;;38.50;24.88;100551.69;7385971;19;20018;-82
2024/02/03 02:20:25;;;;;;;5.38;0.63;;;;;;;38.93;24.75;100551.47;7386479;19;20019;-81
2024/02/03 02:22:51;;;;;;;0.60;0.60;;;;;;;39.18;24.67;100547.47;7387046;19;20018;-81
2024/02/03 02:25:17;;;;;;;0.90;0.38;;;;;;;39.28;24.35;100548.66;7387028;19;20468;-81
2024/02/03 02:27:44;;;;;;;0.65;0.65;;;;;;;39.14;24.32;100558.94;7394233;19;20018;-81
2024/02/03 02:30:13;;;;;;;0.40;0.20;;;;;;;39.30;24.52;100559.66;7388915;19;20472;-81
2024/02/03 02:32:39;;;;;;;0.80;0.38;;;;;;;39.33;24.51;100555.41;7387477;19;20023;-81
2024/02/03 02:35:05;;;;;;;2.03;0.55;;;;;;;39.38;24.16;100560.00;7389370;19;20070;-81
2024/02/03 02:37:33;;;;;;;0.35;0.35;;;;;;;39.38;24.08;100557.06;7386691;19;20449;-82
2024/02/03 02:39:59;;;;;;;3.45;0.30;;;;;;;39.17;24.24;100554.72;7393062;19;20011;-81
2024/02/03 02:42:25;;;;;;;5.20;0.98;;;;;;;39.06;24.56;100555.66;7391672;19;20019;-81
2024/02/03 02:44:51;;;;;;;1.13;0.57;;;;;;;38.95;24.53;100565.34;7394902;19;20018;-81
2024/02/03 02:47:17;;;;;;;3.20;1.10;;;;;;;38.97;24.28;100547.97;7392219;19;20535;-81
2024/02/03 02:49:43;;;;;;;2.47;0.77;;;;;;;38.98;24.74;100564.03;7394708;19;20010;-81
2024/02/03 02:52:09;;;;;;;0.32;0.32;;;;;;;39.24;24.51;100554.31;7394417;19;20344;-81
2024/02/03 02:54:36;;;;;;;0.40;0.40;;;;;;;39.33;24.15;100541.56;7393793;19;20018;-81
2024/02/03 02:57:03;;;;;;;0.30;0.30;;;;;;;39.27;24.51;100552.97;7393424;19;20019;-81
2024/02/03 02:59:29;;;;;;;0.13;0.10;;;;;;;39.19;24.24;100548.97;7390032;19;20025;-81
2024/02/03 03:01:55;;;;;;;3.97;0.40;;;;;;;39.09;24.00;100528.13;7391593;19;20026;-80
2024/02/03 03:04:22;;;;;;;1.05;0.85;;;;;;;38.96;24.19;100532.66;7395007;19;20026;-81
2024/02/03 03:06:48;;;;;;;3.22;0.52;;;;;;;39.07;24.27;100534.59;7390609;19;20036;-80
2024/02/03 03:09:16;;;;;;;4.80;0.90;;;;;;;39.17;24.72;100528.47;7395009;19;20018;-81
2024/02/03 03:11:43;;;;;;;1.25;0.95;;;;;;;38.97;24.40;100534.16;7397969;19;20035;-81
2024/02/03 03:14:09;;;;;;;5.93;0.35;;;;;;;38.90;24.37;100532.38;7392668;19;20019;-81
2024/02/03 03:16:35;;;;;;;0.43;0.43;;;;;;;38.75;24.80;100527.34;7393707;19;20018;-81
2024/02/03 03:19:01;;;;;;;2.72;0.88;;;;;;;38.70;24.54;100527.81;7391674;19;20011;-81
2024/02/03 03:21:28;;;;;;;5.32;0.75;;;;;;;38.69;24.55;100527.06;7390208;19;20026;-81
2024/02/03 03:23:54;;;;;;;2.22;0.47;;;;;;;38.42;25.18;100522.16;7394368;19;20074;-81
2024/02/03 03:26:20;;;;;;;0.85;0.52;;;;;;;38.50;25.08;100528.38;7392507;19;20089;-81
2024/02/03 03:28:46;;;;;;;1.00;0.47;;;;;;;38.58;25.09;100540.41;7391553;19;20017;-81
2024/02/03 03:31:12;;;;;;;2.60;0.40;;;;;;;38.52;25.27;100528.47;7392849;19;20432;-81
2024/02/03 03:33:38;;;;;;;0.17;0.17;;;;;;;38.55;24.89;100532.97;7393613;19;20014;-81
2024/02/03 03:36:04;;;;;;;0.32;0.15;;;;;;;38.39;24.93;100529.31;7391299;19;20082;-81
2024/02/03 03:38:31;;;;;;;0.22;0.22;;;;;;;38.07;25.48;100524.13;7392317;19;20027;-81
2024/02/03 03:40:57;;;;;;;1.02;0.40;;;;;;;38.09;25.67;100524.97;7390676;19;20369;-81
2024/02/03 03:43:23;;;;;;;2.13;1.05;;;;;;;38.22;25.41;100524.13;7390099;19;20078;-81
2024/02/03 03:45:49;;;;;;;14.85;0.60;;;;;;;38.12;25.51;100523.63;7389964;19;20018;-81
2024/02/03 03:48:15;;;;;;;0.10;0.10;;;;;;;38.18;25.45;100520.28;7391548;19;20018;-81
2024/02/03 03:50:42;;;;;;;25.88;1.58;;;;;;;38.39;25.31;100517.69;7393286;19;20019;-81
2024/02/03 03:53:08;;;;;;;3.95;1.05;;;;;;;38.57;25.18;100521.41;7392509;19;20019;-81
2024/02/03 03:55:34;;;;;;;10.18;0.80;;;;;;;38.16;25.33;100529.69;7394882;19;20022;-82
2024/02/03 03:58:00;;;;;;;0.08;0.00;;;;;;;38.35;25.56;100529.16;7393586;19;20010;-81
2024/02/03 04:00:27;;;;;;;0.30;0.30;;;;;;;38.40;25.21;100525.00;7390637;19;20018;-81
2024/02/03 04:02:53;;;;;;;0.10;0.10;;;;;;;38.26;25.41;100527.25;7391712;19;20412;-81
2024/02/03 04:05:20;;;;;;;0.47;0.47;;;;;;;38.48;25.29;100528.28;7389616;19;20468;-81
2024/02/03 04:07:46;;;;;;;1.13;0.22;;;;;;;38.39;25.51;100529.31;7392749;19;20022;-81
2024/02/03 04:10:12;;;;;;;1.30;0.30;;;;;;;38.38;25.45;100521.25;7396620;19;20464;-81
2024/02/03 04:12:38;;;;;;;0.52;0.30;;;;;;;38.56;25.47;100522.84;7391868;19;20015;-81
2024/02/03 04:15:05;;;;;;;2.17;0.80;;;;;;;38.38;25.57;100532.91;7391639;19;20374;-81
2024/02/03 04:17:31;;;;;;;1.13;0.57;;;;;;;38.26;25.57;100538.16;7389222;19;20046;-81
2024/02/03 04:19:57;;;;;;;0.43;0.20;;;;;;;38.38;25.52;100538.72;7393314;19;20014;-81
2024/02/03 04:22:23;;;;;;;1.70;0.47;;;;;;;38.58;25.37;100531.66;7391160;19;20022;-81
2024/02/03 04:24:49;;;;;;;8.40;1.10;;;;;;;38.61;24.78;100530.34;7388002;19;20018;-81
2024/02/03 04:27:15;;;;;;;0.65;0.28;;;;;;;38.65;25.01;100527.63;7393300;19;20107;-81
2024/02/03 04:29:42;;;;;;;0.50;0.15;;;;;;;38.58;25.10;100534.56;7394486;19;20029;-82
2024/02/03 04:32:08;;;;;;;0.60;0.10;;;;;;;38.60;25.48;100525.94;7392266;19;20391;-82
2024/02/03 04:34:34;;;;;;;0.90;0.38;;;;;;;38.48;25.31;100531.22;7391308;19;20031;-82
2024/02/03 04:37:00;;;;;;;1.00;0.75;;;;;;;38.59;25.46;100541.91;7388536;19;20086;-82
2024/02/03 04:39:26;;;;;;;0.20;0.20;;;;;;;38.57;25.27;100535.25;7387512;19;20558;-82
2024/02/03 04:41:52;;;;;;;0.85;0.50;;;;;;;38.93;25.16;100527.41;7389239;19;20313;-82
2024/02/03 04:44:18;;;;;;;0.35;0.30;;;;;;;38.84;24.95;100526.28;7389643;19;20039;-82
2024/02/03 04:46:45;;;;;;;7.75;1.20;;;;;;;38.71;25.30;100540.97;7389879;19;20014;-82
2024/02/03 04:49:11;;;;;;;0.38;0.30;;;;;;;38.72;25.07;100536.66;7392390;19;20023;-82
2024/02/03 04:51:37;;;;;;;0.10;0.10;;;;;;;38.82;25.10;100528.34;7395919;19;20363;-81
2024/02/03 04:54:03;;;;;;;0.30;0.30;;;;;;;38.59;25.19;100533.19;7392013;19;20014;-82
2024/02/03 04:56:29;;;;;;;2.30;0.38;;;;;;;38.60;25.32;100528.84;7391087;19;20038;-81
2024/02/03 04:58:55;;;;;;;0.10;0.10;;;;;;;38.83;25.15;100521.13;7390310;19;20011;-82
2024/02/03 05:01:22;;;;;;;0.73;0.20;;;;;;;38.95;25.34;100525.31;7384919;19;20540;-82
2024/02/03 05:03:48;;;;;;;1.08;0.65;;;;;;;38.85;25.03;100518.31;7392467;19;20022;-82
2024/02/03 05:06:20;;;;;;;1.25;0.57;;;;;;;37.77;25.95;100514.66;7389393;19;20397;-82
2024/02/03 05:08:46;;;;;;;9.27;0.60;;;;;;;37.54;25.79;100512.81;7391705;19;20026;-82
2024/02/03 05:11:12;;;;;;;0.80;0.20;;;;;;;37.70;26.18;100518.69;7392320;19;20014;-82
2024/02/03 05:13:40;;;;;;;0.68;0.47;;;;;;;38.69;25.06;100518.34;7388054;19;20344;-82
2024/02/03 05:16:06;;;;;;;1.45;0.40;;;;;;;38.76;25.19;100513.53;7390849;19;20463;-82
2024/02/03 05:18:32;;;;;;;0.50;0.50;;;;;;;38.56;25.49;100505.38;7389099;19;20022;-82
2024/02/03 05:20:58;;;;;;;1.27;0.55;;;;;;;38.69;25.38;100503.78;7388514;19;20011;-81
2024/02/03 05:23:25;;;;;;;1.13;0.10;;;;;;;38.75;25.39;100506.22;7387780;19;20007;-82
2024/02/03 05:25:51;;;;;;;0.47;0.15;;;;;;;38.66;25.33;100499.97;7387258;19;20026;-82
2024/02/03 05:28:17;;;;;;;7.80;0.63;;;;;;;38.34;25.28;100491.94;7393133;19;20014;-81
2024/02/03 05:30:43;;;;;;;1.48;1.00;;;;;;;38.28;25.75;100498.25;7388134;19;20007;-82
2024/02/03 05:33:09;;;;;;;0.10;0.10;;;;;;;38.31;25.35;100505.69;7388467;19;20014;-82
2024/02/03 05:35:35;;;;;;;0.63;0.57;;;;;;;38.38;25.67;100498.69;7387367;19;20022;-82
2024/02/03 05:38:01;;;;;;;0.20;0.15;;;;;;;38.38;25.43;100498.69;7390839;19;20035;-81
2024/02/03 05:40:27;;;;;;;0.30;0.22;;;;;;;38.37;25.50;100494.31;7387598;19;20022;-81
2024/02/03 05:42:53;;;;;;;2.35;0.82;;;;;;;38.22;25.12;100492.13;7387761;19;20021;-82
2024/02/03 05:45:22;;;;;;;0.15;0.10;;;;;;;37.09;26.37;100491.59;7388980;19;20017;-81
2024/02/03 05:47:51;;;;;;;2.55;0.32;;;;;;;37.83;26.11;100486.66;7392712;19;20020;-81
2024/02/03 05:50:17;;;;;;;0.82;0.30;;;;;;;38.56;25.10;100493.72;7387580;19;20473;-81
2024/02/03 05:52:43;;;;;;;0.10;0.10;;;;;;;38.65;25.27;100489.00;7389922;19;20523;-81
2024/02/03 05:55:09;;;;;;;2.83;1.27;;;;;;;38.60;25.13;100496.81;7388556;19;20022;-82
2024/02/03 05:57:46;;;;;;;0.10;0.00;;;;;;;38.61;25.08;100489.59;7389668;19;20023;-81
2024/02/03 06:00:13;;;;;;;0.30;0.10;;;;;;;38.70;24.96;100487.06;7391708;19;20018;-82
2024/02/03 06:02:39;;;;;;;5.00;0.40;;;;;;;38.52;25.38;100484.03;7389344;19;20401;-82
2024/02/03 06:05:06;;;;;;;1.15;0.85;;;;;;;38.61;25.16;100504.16;7386160;19;20439;-82
2024/02/03 06:07:32;;;;;;;0.32;0.32;;;;;;;38.58;25.05;100490.88;7388300;19;20014;-82
2024/02/03 06:09:58;;;;;;;0.45;0.45;;;;;;;38.46;24.94;100493.28;7392072;19;20011;-81
2024/02/03 06:12:24;;;;;;;7.13;0.52;;;;;;;38.46;25.05;100496.19;7394955;19;20011;-81
2024/02/03 06:14:50;;;;;;;0.10;0.10;;;;;;;38.55;24.80;100506.75;7395636;19;20024;-81
2024/02/03 06:17:16;;;;;;;0.10;0.10;;;;;;;38.54;24.89;100502.38;7395167;19;20010;-81
2024/02/03 06:19:42;;;;;;;0.70;0.10;;;;;;;38.47;24.67;100499.81;7395234;19;20472;-82
2024/02/03 06:22:08;;;;;;;0.77;0.68;;;;;;;38.24;25.19;100514.75;7395378;19;20022;-82
2024/02/03 06:24:35;;;;;;;0.63;0.50;;;;;;;38.30;24.88;100498.34;7396269;19;20484;-81
2024/02/03 06:27:01;;;;;;;0.35;0.20;;;;;;;38.34;24.91;100510.16;7395318;19;20403;-81
2024/02/03 06:29:27;;;;;;;0.55;0.40;;;;;;;38.19;24.71;100499.25;7395272;19;20043;-81
2024/02/03 06:31:53;;;;;;;0.35;0.17;;;;;;;38.07;24.98;100504.50;7395888;19;20010;-82
2024/02/03 06:34:19;;;;;;;0.30;0.30;;;;;;;38.34;25.02;100510.16;7398000;19;20026;-82
2024/02/03 06:36:45;;;;;;;0.10;0.00;;;;;;;38.43;25.04;100500.41;7392926;19;20021;-81
2024/02/03 06:39:11;;;;;;;1.10;0.15;;;;;;;38.40;24.49;100495.88;7393214;19;20392;-82
2024/02/03 06:41:37;;;;;;;0.28;0.20;;;;;;;38.42;25.03;100486.50;7391929;19;20010;-82
2024/02/03 06:44:03;;;;;;;0.22;0.10;;;;;;;38.51;24.54;100497.84;7395588;19;20025;-81
2024/02/03 06:46:29;;;;;;;0.00;0.00;;;;;;;38.46;24.65;100492.50;7396745;19;20046;-82
2024/02/03 06:48:56;;;;;;;0.10;0.10;;;;;;;38.32;24.78;100494.75;7393028;19;20361;-82
2024/02/03 06:51:22;;;;;;;0.30;0.15;;;;;;;38.44;24.97;100501.88;7396468;19;20054;-81
2024/02/03 06:53:48;;;;;;;4.88;1.17;;;;;;;38.55;24.56;100509.66;7395431;19;20476;-82
2024/02/03 06:56:14;;;;;;;0.22;0.15;;;;;;;38.49;24.84;100512.31;7396488;19;20017;-81
2024/02/03 06:58:40;;;;;;;5.43;0.52;;;;;;;38.35;24.91;100513.84;7393116;19;20036;-81
2024/02/03 07:01:06;;;;;;;0.20;0.20;;;;;;;38.21;24.94;100507.31;7391071;19;20026;-82
2024/02/03 07:03:32;;;;;;;1.38;0.43;;;;;;;38.32;24.65;100500.59;7390971;19;20014;-81
2024/02/03 07:05:58;;;;;;;0.30;0.15;;;;;;;38.28;25.05;100512.03;7389604;19;20019;-81
2024/02/03 07:08:24;;;;;;;2.20;0.75;;;;;;;38.27;24.88;100505.47;7394818;19;20377;-82
2024/02/03 07:10:51;;;;;;;2.38;0.70;;;;;;;38.26;24.70;100492.34;7396183;19;20058;-81
2024/02/03 07:13:17;;;;;;;0.35;0.10;;;;;;;38.12;24.97;100500.38;7393170;19;20352;-81
2024/02/03 07:15:43;;;;;;;0.63;0.63;;;;;;;37.93;24.93;100489.28;7393188;19;20022;-82
2024/02/03 07:18:09;;;;;;;0.30;0.30;;;;;;;37.96;24.79;100493.81;7390067;19;20356;-82
2024/02/03 07:20:35;;;;;;;0.20;0.10;;;;;;;37.79;25.19;100503.13;7395572;19;20018;-81
2024/02/03 07:23:02;;;;;;;3.33;0.35;;;;;;;37.73;25.09;100511.53;7391502;19;20369;-82
2024/02/03 07:25:29;;;;;;;1.85;0.73;;;;;;;37.71;25.09;100502.72;7389953;19;20019;-82
2024/02/03 07:27:55;;;;;;;0.70;0.45;;;;;;;37.78;24.89;100519.06;7397774;19;20021;-82
2024/02/03 07:30:22;;;;;;;5.22;0.68;;;;;;;37.81;25.17;100523.63;7392687;19;20042;-81
2024/02/03 07:32:48;;;;;;;0.70;0.40;;;;;;;37.95;25.17;100527.94;7397661;19;20082;-82
2024/02/03 07:35:14;;;;;;;0.45;0.28;;;;;;;38.01;25.32;100535.47;7396495;19;20374;-82
2024/02/03 07:37:40;;;;;;;54.40;7.03;;;;;;;38.00;25.49;100540.53;7394433;19;20041;-82
2024/02/03 07:40:08;;;;;;;0.70;0.40;;;;;;;38.26;25.14;100538.91;7397947;19;20015;-82
2024/02/03 07:42:34;;;;;;;0.88;0.60;;;;;;;38.18;25.40;100537.75;7397911;19;20010;-82
2024/02/03 07:45:00;;;;;;;0.65;0.50;;;;;;;38.33;25.29;100537.78;7391621;19;20465;-82
2024/02/03 07:47:26;;;;;;;5.50;1.08;;;;;;;38.61;25.29;100544.16;7389440;19;20484;-82
2024/02/03 07:49:52;;;;;;;1.45;0.38;;;;;;;38.65;24.95;100545.09;7393779;19;20043;-82
2024/02/03 07:52:20;;;;;;;2.00;0.28;;;;;;;38.59;25.34;100541.91;7391618;19;20077;-81
2024/02/03 07:54:47;;;;;;;1.77;0.30;;;;;;;38.72;25.30;100542.47;7394797;19;20034;-82
2024/02/03 07:57:13;;;;;;;1.33;0.28;;;;;;;38.52;24.86;100553.91;7394707;19;20031;-82
2024/02/03 07:59:39;;;;;;;7.68;0.85;;;;;;;38.40;25.24;100545.38;7390930;19;20025;-82
2024/02/03 08:02:06;;;;;;;0.65;0.35;;;;;;;38.43;24.92;100546.97;7390355;19;20059;-82
2024/02/03 08:04:32;;;;;;;0.10;0.10;;;;;;;38.58;24.99;100546.22;7390483;19;20435;-82
2024/02/03 08:06:58;;;;;;;17.65;1.23;;;;;;;38.26;24.94;100556.38;7388331;19;20093;-82
2024/02/03 08:09:24;;;;;;;4.40;0.63;;;;;;;38.66;24.72;100545.84;7392750;19;20007;-82
2024/02/03 08:11:51;;;;;;;6.90;0.30;;;;;;;39.12;24.19;100544.25;7391744;19;20023;-81
2024/02/03 08:14:17;;;;;;;1.45;1.27;;;;;;;39.14;23.98;100541.44;7392295;19;20018;-81
2024/02/03 08:16:43;;;;;;;4.70;0.60;;;;;;;39.01;24.56;100533.56;7391529;19;20405;-81
2024/02/03 08:32:39;;;;;;;0.82;0.35;;;;;;;32.78;29.80;100563.63;7270539;19;3106608;-53
2024/02/03 09:01:19;;;;;;;0.70;0.50;;;;;;;20.89;100.00;100598.00;7427521;19;20850;-53
2024/02/03 09:03:45;;;;;;;1.67;0.88;;;;;;;20.61;100.00;100598.25;7430365;19;20073;-53
2024/02/03 09:06:11;;;;;;;0.35;0.32;;;;;;;21.03;100.00;100600.47;7425394;19;20462;-53
2024/02/03 09:08:38;;;;;;;0.63;0.35;;;;;;;21.26;100.00;100598.19;7424990;19;20018;-53
2024/02/03 09:11:04;;;;;;;1.63;0.77;;;;;;;21.41;99.79;100597.75;7428518;19;20070;-53
2024/02/03 09:13:30;;;;;;;2.80;1.20;;;;;;;21.45;99.49;100586.88;7431719;19;20409;-53
2024/02/03 09:15:57;;;;;;;2.50;0.85;;;;;;;21.64;98.36;100599.00;7425075;19;20034;-53
2024/02/03 09:18:23;;;;;;;2.15;0.30;;;;;;;21.74;98.51;100595.25;7426832;19;20014;-53
2024/02/03 09:20:49;;;;;;;0.40;0.20;;;;;;;21.84;98.24;100584.34;7428210;19;20015;-53
2024/02/03 09:23:15;;;;;;;4.90;0.52;;;;;;;21.94;97.59;100594.00;7430258;19;20010;-53
2024/02/03 09:25:41;;;;;;;9.75;1.00;;;;;;;22.22;96.80;100590.78;7426758;19;20029;-52
2024/02/03 09:28:07;;;;;;;4.90;0.88;;;;;;;22.45;95.69;100595.56;7426341;19;20411;-53
2024/02/03 09:30:33;;;;;;;0.63;0.30;;;;;;;22.48;96.15;100608.66;7422072;19;20014;-53
2024/02/03 09:33:00;;;;;;;1.58;0.32;;;;;;;22.47;95.18;100592.94;7424102;19;20039;-53
2024/02/03 09:35:27;;;;;;;4.00;0.77;;;;;;;22.63;94.86;100597.59;7429562;19;20091;-53
2024/02/03 09:37:53;;;;;;;9.93;0.80;;;;;;;22.86;93.52;100606.50;7428886;19;20014;-52
2024/02/03 09:40:20;;;;;;;2.45;0.63;;;;;;;22.92;93.30;100595.03;7430420;19;20017;-52
2024/02/03 09:42:48;;;;;;;2.30;0.68;;;;;;;22.90;92.61;100604.13;7427573;19;20017;-52
2024/02/03 09:45:14;;;;;;;4.43;0.90;;;;;;;23.08;90.73;100603.28;7429273;19;20082;-53
2024/02/03 09:47:42;;;;;;;0.68;0.57;;;;;;;22.97;89.36;100606.31;7427026;19;20010;-53
2024/02/03 09:50:08;;;;;;;0.88;0.50;;;;;;;23.04;88.90;100613.44;7424979;19;20018;-53
2024/02/03 09:52:35;;;;;;;4.97;0.85;;;;;;;22.99;89.11;100622.81;7431054;19;20014;-53
2024/02/03 09:55:01;;;;;;;0.68;0.43;;;;;;;23.02;88.63;100621.75;7428240;19;20096;-53
2024/02/03 09:57:27;;;;;;;0.95;0.57;;;;;;;23.03;88.67;100628.94;7427753;19;20014;-53
2024/02/03 09:59:54;;;;;;;1.92;0.40;;;;;;;23.05;88.02;100624.25;7426786;19;20010;-53
2024/02/03 10:02:20;;;;;;;3.80;0.75;;;;;;;23.08;86.48;100637.38;7397357;19;20021;-53
2024/02/03 10:04:47;;;;;;;1.65;0.45;;;;;;;23.15;86.35;100633.13;7399965;19;20082;-53
2024/02/03 10:07:19;;;;;;;0.17;0.17;;;;;;;23.19;84.87;100642.09;7398058;19;20022;-53
2024/02/03 10:09:45;;;;;;;0.15;0.10;;;;;;;23.32;84.98;100642.84;7397914;19;20026;-53
2024/02/03 10:12:25;;;;;;;0.40;0.13;;;;;;;23.30;84.11;100647.56;7402768;19;20022;-53
2024/02/03 10:15:02;;;;;;;0.20;0.00;;;;;;;23.31;84.28;100654.78;7399213;19;20315;-53
2024/02/03 10:17:28;;;;;;;0.50;0.17;;;;;;;23.30;83.53;100656.09;7398984;19;20006;-53
2024/02/03 10:19:54;;;;;;;0.20;0.20;;;;;;;23.25;83.70;100662.66;7397235;19;20021;-53
2024/02/03 10:22:20;;;;;;;1.10;0.30;;;;;;;23.22;82.94;100663.72;7401157;19;20025;-53
2024/02/03 10:24:47;;;;;;;0.30;0.30;;;;;;;23.85;79.39;100659.94;7398095;19;20035;-53
2024/02/03 10:27:13;;;;;;;0.10;0.10;;;;;;;23.27;81.22;100648.66;7401229;19;20011;-53
2024/02/03 10:29:39;;;;;;;1.48;0.45;;;;;;;23.37;81.57;100661.16;7396116;19;20367;-53
2024/02/03 10:32:06;;;;;;;1.10;0.38;;;;;;;23.35;82.54;100661.69;7397911;19;20007;-54
2024/02/03 10:34:32;;;;;;;0.17;0.10;;;;;;;23.47;82.45;100662.28;7397860;19;20033;-54
2024/02/03 10:37:00;;;;;;;1.95;0.63;;;;;;;23.53;81.39;100654.38;7400881;19;20010;-54
2024/02/03 10:39:26;;;;;;;2.95;0.30;;;;;;;23.68;81.80;100654.59;7398227;19;20030;-54
2024/02/03 10:41:55;;;;;;;2.38;0.57;;;;;;;23.73;79.53;100639.50;7400358;19;20026;-54
2024/02/03 10:44:28;;;;;;;0.32;0.10;;;;;;;23.73;79.28;100650.13;7398517;19;20015;-54
2024/02/03 10:47:00;;;;;;;0.20;0.13;;;;;;;23.76;78.10;100657.53;7398632;19;20007;-53
2024/02/03 10:49:41;;;;;;;0.05;0.00;;;;;;;23.82;77.73;100664.66;7393941;19;20014;-53
2024/02/03 10:52:09;;;;;;;1.17;0.30;;;;;;;23.70;76.73;100663.34;7397640;19;20615;-54
2024/02/03 10:54:38;;;;;;;0.20;0.20;;;;;;;23.82;76.48;100664.66;7393922;19;20268;-53
2024/02/03 10:57:05;;;;;;;0.50;0.30;;;;;;;23.86;76.01;100670.78;7393679;19;20024;-53
2024/02/03 10:59:32;;;;;;;0.15;0.00;;;;;;;23.76;74.59;100678.22;7395465;19;20011;-54
2024/02/03 11:01:58;;;;;;;0.20;0.10;;;;;;;23.73;74.92;100690.72;7394007;19;20019;-53
2024/02/03 11:04:24;;;;;;;0.20;0.20;;;;;;;23.74;74.93;100689.38;7393709;19;20014;-54
2024/02/03 11:06:51;;;;;;;4.78;0.38;;;;;;;23.62;75.15;100693.00;7395445;19;20003;-54
2024/02/03 11:09:21;;;;;;;1.05;0.10;;;;;;;23.63;75.12;100686.75;7395008;19;20094;-53
2024/02/03 11:11:50;;;;;;;5.28;0.68;;;;;;;23.75;74.66;100693.78;7399642;19;20465;-53
2024/02/03 11:14:20;;;;;;;0.20;0.20;;;;;;;23.68;74.82;100690.81;7395447;19;20022;-53
2024/02/03 11:17:03;;;;;;;0.30;0.13;;;;;;;23.86;74.71;100689.94;7396036;19;20010;-54
2024/02/03 11:19:30;;;;;;;2.15;0.25;;;;;;;23.84;74.51;100679.13;7396237;19;20085;-54
2024/02/03 11:22:02;;;;;;;0.13;0.13;;;;;;;23.92;73.76;100679.22;7399281;19;20019;-54
2024/02/03 11:24:30;;;;;;;4.40;0.73;;;;;;;24.12;74.06;100680.63;7393391;19;20025;-54
2024/02/03 11:27:02;;;;;;;1.45;0.52;;;;;;;24.05;73.43;100688.53;7394484;19;20010;-53
2024/02/03 11:29:30;;;;;;;9.23;0.40;;;;;;;23.99;73.13;100693.56;7394374;19;20462;-54
2024/02/03 11:32:07;;;;;;;0.28;0.28;;;;;;;23.87;73.14;100695.06;7394953;19;20038;-54
2024/02/03 11:34:35;;;;;;;0.93;0.30;;;;;;;23.63;73.22;100695.28;7394271;19;20039;-54
2024/02/03 11:37:02;;;;;;;0.45;0.20;;;;;;;23.39;73.33;100701.16;7394951;19;20510;-54
2024/02/03 11:39:38;;;;;;;1.45;0.68;;;;;;;23.25;74.34;100708.13;7395503;19;20081;-54
2024/02/03 11:42:06;;;;;;;8.07;0.55;;;;;;;22.99;75.80;100708.06;7395559;19;20014;-54
2024/02/03 11:44:59;;;;;;;3.60;0.98;;;;;;;22.90;75.89;100708.44;7395464;19;20007;-54
2024/02/03 11:47:25;;;;;;;1.02;0.47;;;;;;;22.60;76.69;100712.28;7394217;19;20014;-54
2024/02/03 11:49:52;;;;;;;1.33;0.40;;;;;;;20.62;90.84;100707.34;7393974;19;20007;-54
2024/02/03 11:52:18;;;;;;;1.27;0.30;;;;;;;19.90;99.81;100709.75;7398172;19;20007;-54
2024/02/03 11:54:44;;;;;;;4.47;0.75;;;;;;;19.73;100.00;100709.03;7394429;19;20033;-54
2024/02/03 11:57:11;;;;;;;1.05;0.47;;;;;;;19.61;100.00;100711.13;7394327;19;20032;-54
2024/02/03 11:59:37;;;;;;;2.85;0.70;;;;;;;20.99;99.23;100699.09;7395382;19;20754;-54
2024/02/03 12:02:04;;;;;;;11.43;1.02;;;;;;;22.09;89.65;100707.03;7394599;19;20010;-54